Overview Statistics Trail Chart Weather Telemetry Raw packets
 

This is the latest recevied weather packets stored in our database for station/object KD4EED. If no packets are shown the sender has not sent any weather packets the latest 10 day(s).

<< 84 85 86 87 88 89 90 >>
Time Temp. Humidity Pressure Rain* Wind** Luminosity Snow
1788059661 24.44° C 72% 1007.7 hPa - - 0 W/m² -
1788059357 24.44° C 72% 1007.7 hPa - - 0 W/m² -
1788059053 24.44° C 72% 1007.5 hPa - - 0 W/m² -
1788058747 24.44° C 71% 1007.5 hPa - - 0 W/m² -
1788058446 24.44° C 71% 1007.4 hPa - - 0 W/m² -
1788058145 25° C 71% 1007.4 hPa - - 0 W/m² -
1788057841 25° C 71% 1007.4 hPa - - 0 W/m² -
1788057538 25° C 70% 1007.6 hPa - - 0 W/m² -
1788057237 25° C 70% 1007.6 hPa - - 0 W/m² -
1788056936 25.56° C 69% 1007.4 hPa - - 1 W/m² -
1788056632 25.56° C 69% 1007.4 hPa - - 2 W/m² -
1788056331 25.56° C 68% 1007.2 hPa - - 3 W/m² -
1788056027 26.11° C 68% 1007.2 hPa - - 4 W/m² -
1788055727 26.67° C 66% 1007.2 hPa - - 6 W/m² -
1788055422 26.67° C 64% 1007.1 hPa - - 9 W/m² -
1788055117 27.22° C 64% 1007.3 hPa - - 12 W/m² -
1788054817 27.78° C 63% 1007.2 hPa - - 16 W/m² -
1788054512 28.33° C 60% 1007.2 hPa - - 27 W/m² -
1788054209 28.33° C 60% 1007.1 hPa - - 27 W/m² -
1788053904 28.89° C 58% 1007.4 hPa - - 41 W/m² -
1788053599 28.89° C 57% 1007.4 hPa - - 41 W/m² -
1788053295 28.89° C 56% 1007.3 hPa - - 36 W/m² -
1788052991 29.44° C 56% 1007.5 hPa - - 54 W/m² -
1788052687 29.44° C 55% 1007.4 hPa - - 59 W/m² -
1788052387 29.44° C 55% 1007.4 hPa - - 58 W/m² -

* Rain since midnight (hover to see other rain measurements)
** Current wind speed in m/s (hover to see current wind gust speed)